sensor_id;sensor_type;location;lat;lon;timestamp;temperature;humidity
11762;DHT22;5938;47.098;15.474;2023-12-07T00:00:11;-0.70;99.90
11762;DHT22;5938;47.098;15.474;2023-12-07T00:04:15;-0.80;99.90
11762;DHT22;5938;47.098;15.474;2023-12-07T00:08:18;-0.80;99.90
11762;DHT22;5938;47.098;15.474;2023-12-07T00:12:22;-0.60;99.90
11762;DHT22;5938;47.098;15.474;2023-12-07T00:16:27;-0.90;99.90
11762;DHT22;5938;47.098;15.474;2023-12-07T00:20:30;-0.70;99.90
11762;DHT22;5938;47.098;15.474;2023-12-07T00:24:34;-0.70;99.90
11762;DHT22;5938;47.098;15.474;2023-12-07T00:28:37;-0.70;99.90
11762;DHT22;5938;47.098;15.474;2023-12-07T00:32:42;-0.80;99.90
11762;DHT22;5938;47.098;15.474;2023-12-07T00:36:46;-0.80;99.90
11762;DHT22;5938;47.098;15.474;2023-12-07T00:40:49;-0.70;99.90
11762;DHT22;5938;47.098;15.474;2023-12-07T00:44:52;-1.00;99.90
11762;DHT22;5938;47.098;15.474;2023-12-07T00:48:57;-1.20;99.90
11762;DHT22;5938;47.098;15.474;2023-12-07T00:53:00;-1.10;99.90
11762;DHT22;5938;47.098;15.474;2023-12-07T00:57:04;-1.40;99.90
11762;DHT22;5938;47.098;15.474;2023-12-07T01:01:07;-1.30;99.90
11762;DHT22;5938;47.098;15.474;2023-12-07T01:05:12;-1.60;99.90
11762;DHT22;5938;47.098;15.474;2023-12-07T01:09:15;-1.20;99.90
11762;DHT22;5938;47.098;15.474;2023-12-07T01:13:19;-1.30;99.90
11762;DHT22;5938;47.098;15.474;2023-12-07T01:17:22;-1.40;99.90
11762;DHT22;5938;47.098;15.474;2023-12-07T01:21:27;-1.10;99.90
11762;DHT22;5938;47.098;15.474;2023-12-07T01:25:31;-1.10;99.90
11762;DHT22;5938;47.098;15.474;2023-12-07T01:29:35;-1.30;99.90
11762;DHT22;5938;47.098;15.474;2023-12-07T01:33:38;-1.20;99.90
11762;DHT22;5938;47.098;15.474;2023-12-07T01:37:43;-1.40;99.90
11762;DHT22;5938;47.098;15.474;2023-12-07T01:41:46;-1.50;99.90
11762;DHT22;5938;47.098;15.474;2023-12-07T01:45:52;-1.30;99.90
11762;DHT22;5938;47.098;15.474;2023-12-07T01:49:58;-1.40;99.90
11762;DHT22;5938;47.098;15.474;2023-12-07T01:54:03;-1.50;99.90
11762;DHT22;5938;47.098;15.474;2023-12-07T01:58:07;-1.50;99.90
11762;DHT22;5938;47.098;15.474;2023-12-07T02:02:13;-1.60;99.90
11762;DHT22;5938;47.098;15.474;2023-12-07T02:06:17;-1.60;99.90
11762;DHT22;5938;47.098;15.474;2023-12-07T02:10:22;-1.70;99.90
11762;DHT22;5938;47.098;15.474;2023-12-07T02:14:25;-1.90;99.90
11762;DHT22;5938;47.098;15.474;2023-12-07T02:18:38;-1.80;99.90
11762;DHT22;5938;47.098;15.474;2023-12-07T02:22:48;-2.00;99.90
11762;DHT22;5938;47.098;15.474;2023-12-07T02:26:54;-2.00;99.90
11762;DHT22;5938;47.098;15.474;2023-12-07T02:30:57;-2.00;99.90
11762;DHT22;5938;47.098;15.474;2023-12-07T02:35:01;-2.20;99.90
11762;DHT22;5938;47.098;15.474;2023-12-07T02:39:05;-2.30;99.90
11762;DHT22;5938;47.098;15.474;2023-12-07T02:43:12;-2.40;99.90
11762;DHT22;5938;47.098;15.474;2023-12-07T02:47:16;-2.30;99.90
11762;DHT22;5938;47.098;15.474;2023-12-07T02:51:19;-2.50;99.90
11762;DHT22;5938;47.098;15.474;2023-12-07T02:55:23;-2.50;99.90
11762;DHT22;5938;47.098;15.474;2023-12-07T02:59:27;-2.50;99.90
11762;DHT22;5938;47.098;15.474;2023-12-07T03:03:31;-2.30;99.90
11762;DHT22;5938;47.098;15.474;2023-12-07T03:07:34;-2.30;99.90
11762;DHT22;5938;47.098;15.474;2023-12-07T03:11:38;-2.40;99.90
11762;DHT22;5938;47.098;15.474;2023-12-07T03:15:43;-2.40;99.90
11762;DHT22;5938;47.098;15.474;2023-12-07T03:19:46;-2.50;99.90
11762;DHT22;5938;47.098;15.474;2023-12-07T03:23:50;-2.40;99.90
11762;DHT22;5938;47.098;15.474;2023-12-07T03:27:53;-2.60;99.90
11762;DHT22;5938;47.098;15.474;2023-12-07T03:31:58;-2.40;99.90
11762;DHT22;5938;47.098;15.474;2023-12-07T03:36:01;-2.40;99.90
11762;DHT22;5938;47.098;15.474;2023-12-07T03:40:06;-2.40;99.90
11762;DHT22;5938;47.098;15.474;2023-12-07T03:44:11;-2.40;99.90
11762;DHT22;5938;47.098;15.474;2023-12-07T03:48:15;-2.30;99.90
11762;DHT22;5938;47.098;15.474;2023-12-07T03:52:19;-2.20;99.90
11762;DHT22;5938;47.098;15.474;2023-12-07T03:56:23;-2.30;99.90
11762;DHT22;5938;47.098;15.474;2023-12-07T04:00:27;-2.40;99.90
11762;DHT22;5938;47.098;15.474;2023-12-07T04:04:32;-2.50;99.90
11762;DHT22;5938;47.098;15.474;2023-12-07T04:08:35;-2.50;99.90
11762;DHT22;5938;47.098;15.474;2023-12-07T04:12:38;-2.60;99.90
11762;DHT22;5938;47.098;15.474;2023-12-07T04:16:42;-2.60;99.90
11762;DHT22;5938;47.098;15.474;2023-12-07T04:20:46;-2.60;99.90
11762;DHT22;5938;47.098;15.474;2023-12-07T04:24:50;-2.60;99.90
11762;DHT22;5938;47.098;15.474;2023-12-07T04:28:53;-2.50;99.90
11762;DHT22;5938;47.098;15.474;2023-12-07T04:32:57;-2.70;99.90
11762;DHT22;5938;47.098;15.474;2023-12-07T04:37:02;-2.60;99.90
11762;DHT22;5938;47.098;15.474;2023-12-07T04:41:07;-2.60;99.90
11762;DHT22;5938;47.098;15.474;2023-12-07T04:45:10;-2.40;99.90
11762;DHT22;5938;47.098;15.474;2023-12-07T04:49:14;-2.50;99.90
11762;DHT22;5938;47.098;15.474;2023-12-07T04:53:18;-2.50;99.90
11762;DHT22;5938;47.098;15.474;2023-12-07T04:57:22;-2.20;99.90
11762;DHT22;5938;47.098;15.474;2023-12-07T05:01:25;-2.30;99.90
11762;DHT22;5938;47.098;15.474;2023-12-07T05:05:29;-2.60;99.90
11762;DHT22;5938;47.098;15.474;2023-12-07T05:09:34;-2.20;99.90
11762;DHT22;5938;47.098;15.474;2023-12-07T05:13:37;-2.30;99.90
11762;DHT22;5938;47.098;15.474;2023-12-07T05:17:41;-2.30;99.90
11762;DHT22;5938;47.098;15.474;2023-12-07T05:21:45;-2.30;99.90
11762;DHT22;5938;47.098;15.474;2023-12-07T05:25:50;-2.50;99.90
11762;DHT22;5938;47.098;15.474;2023-12-07T05:29:53;-2.30;99.90
11762;DHT22;5938;47.098;15.474;2023-12-07T05:33:57;-2.20;99.90
11762;DHT22;5938;47.098;15.474;2023-12-07T05:38:00;-2.20;99.90
11762;DHT22;5938;47.098;15.474;2023-12-07T05:42:06;-2.30;99.90
11762;DHT22;5938;47.098;15.474;2023-12-07T05:46:09;-2.20;99.90
11762;DHT22;5938;47.098;15.474;2023-12-07T05:50:13;-2.20;99.90
11762;DHT22;5938;47.098;15.474;2023-12-07T05:54:16;-2.20;99.90
11762;DHT22;5938;47.098;15.474;2023-12-07T05:58:21;-2.30;99.90
11762;DHT22;5938;47.098;15.474;2023-12-07T06:02:25;-2.10;99.90
11762;DHT22;5938;47.098;15.474;2023-12-07T06:06:28;-2.30;99.90
11762;DHT22;5938;47.098;15.474;2023-12-07T06:10:32;-2.20;99.90
11762;DHT22;5938;47.098;15.474;2023-12-07T06:14:38;-2.30;99.90
11762;DHT22;5938;47.098;15.474;2023-12-07T06:18:41;-2.50;99.90
11762;DHT22;5938;47.098;15.474;2023-12-07T06:22:44;-2.50;99.90
11762;DHT22;5938;47.098;15.474;2023-12-07T06:26:48;-2.40;99.90
11762;DHT22;5938;47.098;15.474;2023-12-07T06:30:55;-2.60;99.90
11762;DHT22;5938;47.098;15.474;2023-12-07T06:35:00;-2.60;99.90
11762;DHT22;5938;47.098;15.474;2023-12-07T06:39:06;-2.80;99.90
11762;DHT22;5938;47.098;15.474;2023-12-07T06:43:10;-2.80;99.90
11762;DHT22;5938;47.098;15.474;2023-12-07T06:47:15;-2.70;99.90
11762;DHT22;5938;47.098;15.474;2023-12-07T06:51:18;-2.70;99.90
11762;DHT22;5938;47.098;15.474;2023-12-07T06:55:22;-2.70;99.90
11762;DHT22;5938;47.098;15.474;2023-12-07T06:59:26;-2.90;99.90
11762;DHT22;5938;47.098;15.474;2023-12-07T07:03:30;-2.80;99.90
11762;DHT22;5938;47.098;15.474;2023-12-07T07:07:34;-2.80;99.90
11762;DHT22;5938;47.098;15.474;2023-12-07T07:11:37;-2.80;99.90
11762;DHT22;5938;47.098;15.474;2023-12-07T07:15:41;-2.90;99.90
11762;DHT22;5938;47.098;15.474;2023-12-07T07:19:46;-2.90;99.90
11762;DHT22;5938;47.098;15.474;2023-12-07T07:23:50;-2.90;99.90
11762;DHT22;5938;47.098;15.474;2023-12-07T07:27:53;-3.00;99.90
11762;DHT22;5938;47.098;15.474;2023-12-07T07:31:57;-2.90;99.90
11762;DHT22;5938;47.098;15.474;2023-12-07T07:36:02;-3.00;99.90
11762;DHT22;5938;47.098;15.474;2023-12-07T07:40:06;-2.80;99.90
11762;DHT22;5938;47.098;15.474;2023-12-07T07:44:12;-3.30;99.90
11762;DHT22;5938;47.098;15.474;2023-12-07T07:48:15;-3.00;99.90
11762;DHT22;5938;47.098;15.474;2023-12-07T07:52:20;-2.90;99.90
11762;DHT22;5938;47.098;15.474;2023-12-07T07:56:24;-2.90;99.90
11762;DHT22;5938;47.098;15.474;2023-12-07T08:00:27;-3.00;99.90
11762;DHT22;5938;47.098;15.474;2023-12-07T08:04:31;-2.70;99.90
11762;DHT22;5938;47.098;15.474;2023-12-07T08:08:36;-2.80;99.90
11762;DHT22;5938;47.098;15.474;2023-12-07T08:12:40;-2.60;99.90
11762;DHT22;5938;47.098;15.474;2023-12-07T08:16:44;-2.60;99.90
11762;DHT22;5938;47.098;15.474;2023-12-07T08:20:49;-2.40;99.90
11762;DHT22;5938;47.098;15.474;2023-12-07T08:24:53;-2.40;99.90
11762;DHT22;5938;47.098;15.474;2023-12-07T08:29:09;-2.30;99.90
11762;DHT22;5938;47.098;15.474;2023-12-07T08:33:12;-2.30;99.90
11762;DHT22;5938;47.098;15.474;2023-12-07T08:37:16;-2.10;99.90
11762;DHT22;5938;47.098;15.474;2023-12-07T08:41:21;-2.20;99.90
11762;DHT22;5938;47.098;15.474;2023-12-07T08:45:25;-2.00;99.90
11762;DHT22;5938;47.098;15.474;2023-12-07T08:49:29;-2.00;99.90
11762;DHT22;5938;47.098;15.474;2023-12-07T08:53:32;-1.70;99.90
11762;DHT22;5938;47.098;15.474;2023-12-07T08:57:37;-1.40;99.90
11762;DHT22;5938;47.098;15.474;2023-12-07T09:01:41;-1.20;99.90
11762;DHT22;5938;47.098;15.474;2023-12-07T09:05:44;-0.90;99.90
11762;DHT22;5938;47.098;15.474;2023-12-07T09:09:48;-0.60;99.90
11762;DHT22;5938;47.098;15.474;2023-12-07T09:13:52;-0.70;99.90
11762;DHT22;5938;47.098;15.474;2023-12-07T09:17:56;-0.60;99.90
11762;DHT22;5938;47.098;15.474;2023-12-07T09:21:59;-0.60;99.90
11762;DHT22;5938;47.098;15.474;2023-12-07T09:26:03;-0.30;99.90
11762;DHT22;5938;47.098;15.474;2023-12-07T09:30:09;-0.40;99.90
11762;DHT22;5938;47.098;15.474;2023-12-07T09:34:14;-0.30;99.90
11762;DHT22;5938;47.098;15.474;2023-12-07T09:38:20;-0.30;99.90
11762;DHT22;5938;47.098;15.474;2023-12-07T09:42:23;-0.20;99.90
11762;DHT22;5938;47.098;15.474;2023-12-07T09:46:38;0.10;99.90
11762;DHT22;5938;47.098;15.474;2023-12-07T09:50:42;0.30;99.90
11762;DHT22;5938;47.098;15.474;2023-12-07T09:54:45;0.90;99.90
11762;DHT22;5938;47.098;15.474;2023-12-07T09:58:49;1.20;99.90
11762;DHT22;5938;47.098;15.474;2023-12-07T10:02:54;1.30;99.90
11762;DHT22;5938;47.098;15.474;2023-12-07T10:06:58;2.30;99.90
11762;DHT22;5938;47.098;15.474;2023-12-07T10:11:06;3.20;99.90
11762;DHT22;5938;47.098;15.474;2023-12-07T10:15:12;3.80;99.90
11762;DHT22;5938;47.098;15.474;2023-12-07T10:19:17;4.10;99.90
11762;DHT22;5938;47.098;15.474;2023-12-07T10:23:33;4.80;99.90
11762;DHT22;5938;47.098;15.474;2023-12-07T10:27:37;5.80;99.90
11762;DHT22;5938;47.098;15.474;2023-12-07T10:31:42;6.10;99.90
11762;DHT22;5938;47.098;15.474;2023-12-07T10:35:47;7.20;99.90
11762;DHT22;5938;47.098;15.474;2023-12-07T10:39:52;7.50;99.90
11762;DHT22;5938;47.098;15.474;2023-12-07T10:44:00;7.40;99.90
11762;DHT22;5938;47.098;15.474;2023-12-07T10:48:06;7.10;99.90
11762;DHT22;5938;47.098;15.474;2023-12-07T10:52:13;6.30;98.60
11762;DHT22;5938;47.098;15.474;2023-12-07T10:56:24;6.50;98.70
11762;DHT22;5938;47.098;15.474;2023-12-07T11:00:30;8.10;97.90
11762;DHT22;5938;47.098;15.474;2023-12-07T11:04:46;9.10;95.10
11762;DHT22;5938;47.098;15.474;2023-12-07T11:08:57;10.40;94.20
11762;DHT22;5938;47.098;15.474;2023-12-07T11:13:11;13.30;89.30
11762;DHT22;5938;47.098;15.474;2023-12-07T11:17:16;13.00;75.00
11762;DHT22;5938;47.098;15.474;2023-12-07T11:21:20;13.50;75.60
11762;DHT22;5938;47.098;15.474;2023-12-07T11:25:25;11.60;78.10
11762;DHT22;5938;47.098;15.474;2023-12-07T11:29:29;9.20;80.30
11762;DHT22;5938;47.098;15.474;2023-12-07T11:33:33;7.20;87.60
11762;DHT22;5938;47.098;15.474;2023-12-07T11:38:05;6.20;90.00
11762;DHT22;5938;47.098;15.474;2023-12-07T11:42:12;5.30;89.30
11762;DHT22;5938;47.098;15.474;2023-12-07T11:46:18;4.80;91.10
11762;DHT22;5938;47.098;15.474;2023-12-07T11:50:22;4.50;92.70
11762;DHT22;5938;47.098;15.474;2023-12-07T11:54:27;4.50;94.30
11762;DHT22;5938;47.098;15.474;2023-12-07T11:58:33;4.30;90.60
11762;DHT22;5938;47.098;15.474;2023-12-07T12:02:41;4.50;90.50
11762;DHT22;5938;47.098;15.474;2023-12-07T12:06:45;4.40;91.30
11762;DHT22;5938;47.098;15.474;2023-12-07T12:10:50;4.40;91.70
11762;DHT22;5938;47.098;15.474;2023-12-07T12:14:56;4.40;92.40
11762;DHT22;5938;47.098;15.474;2023-12-07T12:19:00;4.30;91.80
11762;DHT22;5938;47.098;15.474;2023-12-07T12:23:03;4.20;91.90
11762;DHT22;5938;47.098;15.474;2023-12-07T12:27:07;4.60;92.70
11762;DHT22;5938;47.098;15.474;2023-12-07T12:31:12;6.80;87.80
11762;DHT22;5938;47.098;15.474;2023-12-07T12:35:16;8.30;84.10
11762;DHT22;5938;47.098;15.474;2023-12-07T12:39:19;8.60;82.30
11762;DHT22;5938;47.098;15.474;2023-12-07T12:43:33;10.30;77.60
11762;DHT22;5938;47.098;15.474;2023-12-07T12:47:38;11.90;68.70
11762;DHT22;5938;47.098;15.474;2023-12-07T12:51:41;13.00;69.70
11762;DHT22;5938;47.098;15.474;2023-12-07T12:55:47;14.30;70.20
11762;DHT22;5938;47.098;15.474;2023-12-07T12:59:51;16.60;65.70
11762;DHT22;5938;47.098;15.474;2023-12-07T13:03:56;16.80;61.90
11762;DHT22;5938;47.098;15.474;2023-12-07T13:08:00;15.10;65.80
11762;DHT22;5938;47.098;15.474;2023-12-07T13:12:15;15.70;60.90
11762;DHT22;5938;47.098;15.474;2023-12-07T13:16:19;11.90;64.40
11762;DHT22;5938;47.098;15.474;2023-12-07T13:20:24;8.60;72.90
11762;DHT22;5938;47.098;15.474;2023-12-07T13:24:28;6.10;80.00
11762;DHT22;5938;47.098;15.474;2023-12-07T13:28:31;5.00;86.50
11762;DHT22;5938;47.098;15.474;2023-12-07T13:32:35;4.40;85.80
11762;DHT22;5938;47.098;15.474;2023-12-07T13:36:41;4.10;84.10
11762;DHT22;5938;47.098;15.474;2023-12-07T13:40:45;3.90;87.40
11762;DHT22;5938;47.098;15.474;2023-12-07T13:44:49;3.60;90.10
11762;DHT22;5938;47.098;15.474;2023-12-07T13:48:52;3.20;90.40
11762;DHT22;5938;47.098;15.474;2023-12-07T13:52:57;3.30;90.00
11762;DHT22;5938;47.098;15.474;2023-12-07T13:57:00;3.40;88.50
11762;DHT22;5938;47.098;15.474;2023-12-07T14:01:05;3.50;89.40
11762;DHT22;5938;47.098;15.474;2023-12-07T14:05:10;3.10;91.90
11762;DHT22;5938;47.098;15.474;2023-12-07T14:09:16;2.70;94.30
11762;DHT22;5938;47.098;15.474;2023-12-07T14:13:20;2.30;95.10
11762;DHT22;5938;47.098;15.474;2023-12-07T14:17:24;2.00;95.70
11762;DHT22;5938;47.098;15.474;2023-12-07T14:21:38;1.80;97.20
11762;DHT22;5938;47.098;15.474;2023-12-07T14:25:57;1.60;98.60
11762;DHT22;5938;47.098;15.474;2023-12-07T14:30:06;1.60;96.70
11762;DHT22;5938;47.098;15.474;2023-12-07T14:34:12;1.70;96.80
11762;DHT22;5938;47.098;15.474;2023-12-07T14:38:24;1.10;98.30
11762;DHT22;5938;47.098;15.474;2023-12-07T14:42:29;1.20;99.30
11762;DHT22;5938;47.098;15.474;2023-12-07T14:46:32;0.90;99.90
11762;DHT22;5938;47.098;15.474;2023-12-07T14:50:36;0.70;99.90
11762;DHT22;5938;47.098;15.474;2023-12-07T14:54:39;0.30;99.90
11762;DHT22;5938;47.098;15.474;2023-12-07T14:58:44;0.40;99.90
11762;DHT22;5938;47.098;15.474;2023-12-07T15:02:48;0.10;99.90
11762;DHT22;5938;47.098;15.474;2023-12-07T15:06:52;0.00;99.90
11762;DHT22;5938;47.098;15.474;2023-12-07T15:10:57;-0.20;99.90
11762;DHT22;5938;47.098;15.474;2023-12-07T15:15:02;-0.30;99.90
11762;DHT22;5938;47.098;15.474;2023-12-07T15:19:08;-0.50;99.90
11762;DHT22;5938;47.098;15.474;2023-12-07T15:23:12;-0.70;99.90
11762;DHT22;5938;47.098;15.474;2023-12-07T15:27:15;-0.50;99.90
11762;DHT22;5938;47.098;15.474;2023-12-07T15:31:20;-0.90;99.90
11762;DHT22;5938;47.098;15.474;2023-12-07T15:35:25;-1.00;99.90
11762;DHT22;5938;47.098;15.474;2023-12-07T15:39:30;-0.80;99.90
11762;DHT22;5938;47.098;15.474;2023-12-07T15:43:34;-1.20;99.90
11762;DHT22;5938;47.098;15.474;2023-12-07T15:48:10;-1.30;99.90
11762;DHT22;5938;47.098;15.474;2023-12-07T15:52:57;-1.30;99.90
11762;DHT22;5938;47.098;15.474;2023-12-07T15:57:04;-1.30;99.90
11762;DHT22;5938;47.098;15.474;2023-12-07T16:01:09;-1.50;99.90
11762;DHT22;5938;47.098;15.474;2023-12-07T16:05:14;-1.60;99.90
11762;DHT22;5938;47.098;15.474;2023-12-07T16:09:18;-1.70;99.90
11762;DHT22;5938;47.098;15.474;2023-12-07T16:13:21;-1.70;99.90
11762;DHT22;5938;47.098;15.474;2023-12-07T16:17:25;-1.90;99.90
11762;DHT22;5938;47.098;15.474;2023-12-07T16:21:30;-2.00;99.90
11762;DHT22;5938;47.098;15.474;2023-12-07T16:25:34;-1.90;99.90
11762;DHT22;5938;47.098;15.474;2023-12-07T16:29:37;-2.10;99.90
11762;DHT22;5938;47.098;15.474;2023-12-07T16:33:41;-2.10;99.90
11762;DHT22;5938;47.098;15.474;2023-12-07T16:37:46;-2.20;99.90
11762;DHT22;5938;47.098;15.474;2023-12-07T16:41:49;-2.10;99.90
11762;DHT22;5938;47.098;15.474;2023-12-07T16:46:03;-2.20;99.90
11762;DHT22;5938;47.098;15.474;2023-12-07T16:50:09;-2.30;99.90
11762;DHT22;5938;47.098;15.474;2023-12-07T16:54:15;-2.30;99.90
11762;DHT22;5938;47.098;15.474;2023-12-07T16:58:19;-2.50;99.90
11762;DHT22;5938;47.098;15.474;2023-12-07T17:02:31;-2.40;99.90
11762;DHT22;5938;47.098;15.474;2023-12-07T17:06:36;-2.30;99.90
11762;DHT22;5938;47.098;15.474;2023-12-07T17:10:57;-2.60;99.90
11762;DHT22;5938;47.098;15.474;2023-12-07T17:15:01;-2.50;99.90
11762;DHT22;5938;47.098;15.474;2023-12-07T17:19:05;-2.60;99.90
11762;DHT22;5938;47.098;15.474;2023-12-07T17:23:09;-2.40;99.90
11762;DHT22;5938;47.098;15.474;2023-12-07T17:27:14;-2.60;99.90
11762;DHT22;5938;47.098;15.474;2023-12-07T17:31:18;-2.50;99.90
11762;DHT22;5938;47.098;15.474;2023-12-07T17:35:21;-2.60;99.90
11762;DHT22;5938;47.098;15.474;2023-12-07T17:39:25;-2.70;99.90
11762;DHT22;5938;47.098;15.474;2023-12-07T17:43:30;-2.90;99.90
11762;DHT22;5938;47.098;15.474;2023-12-07T17:47:34;-2.70;99.90
11762;DHT22;5938;47.098;15.474;2023-12-07T17:51:39;-2.70;99.90
11762;DHT22;5938;47.098;15.474;2023-12-07T17:55:43;-2.80;99.90
11762;DHT22;5938;47.098;15.474;2023-12-07T17:59:48;-3.10;99.90
11762;DHT22;5938;47.098;15.474;2023-12-07T18:03:51;-3.20;99.90
11762;DHT22;5938;47.098;15.474;2023-12-07T18:08:00;-3.00;99.90
11762;DHT22;5938;47.098;15.474;2023-12-07T18:12:06;-2.90;99.90
11762;DHT22;5938;47.098;15.474;2023-12-07T18:16:11;-3.00;99.90
11762;DHT22;5938;47.098;15.474;2023-12-07T18:20:15;-2.90;99.90
11762;DHT22;5938;47.098;15.474;2023-12-07T18:24:19;-3.10;99.90
11762;DHT22;5938;47.098;15.474;2023-12-07T18:28:22;-3.10;99.90
11762;DHT22;5938;47.098;15.474;2023-12-07T18:32:27;-3.20;99.90
11762;DHT22;5938;47.098;15.474;2023-12-07T18:36:31;-3.20;99.90
11762;DHT22;5938;47.098;15.474;2023-12-07T18:40:34;-3.30;99.90
11762;DHT22;5938;47.098;15.474;2023-12-07T18:44:44;-3.40;99.90
11762;DHT22;5938;47.098;15.474;2023-12-07T18:48:49;-3.40;99.90
11762;DHT22;5938;47.098;15.474;2023-12-07T18:52:52;-3.30;99.90
11762;DHT22;5938;47.098;15.474;2023-12-07T18:56:56;-3.40;99.90
11762;DHT22;5938;47.098;15.474;2023-12-07T19:00:59;-3.40;99.90
11762;DHT22;5938;47.098;15.474;2023-12-07T19:05:06;-3.50;99.90
11762;DHT22;5938;47.098;15.474;2023-12-07T19:09:10;-3.30;99.90
11762;DHT22;5938;47.098;15.474;2023-12-07T19:13:15;-3.70;99.90
11762;DHT22;5938;47.098;15.474;2023-12-07T19:17:18;-3.70;99.90
11762;DHT22;5938;47.098;15.474;2023-12-07T19:21:23;-3.60;99.90
11762;DHT22;5938;47.098;15.474;2023-12-07T19:25:27;-3.70;99.90
11762;DHT22;5938;47.098;15.474;2023-12-07T19:29:31;-3.90;99.90
11762;DHT22;5938;47.098;15.474;2023-12-07T19:33:36;-3.80;99.90
11762;DHT22;5938;47.098;15.474;2023-12-07T19:37:41;-3.80;99.90
11762;DHT22;5938;47.098;15.474;2023-12-07T19:41:45;-3.90;99.90
11762;DHT22;5938;47.098;15.474;2023-12-07T19:45:50;-3.90;99.90
11762;DHT22;5938;47.098;15.474;2023-12-07T19:49:54;-3.80;99.90
11762;DHT22;5938;47.098;15.474;2023-12-07T19:53:59;-3.80;99.90
11762;DHT22;5938;47.098;15.474;2023-12-07T19:58:03;-4.00;99.90
11762;DHT22;5938;47.098;15.474;2023-12-07T20:02:08;-4.00;99.90
11762;DHT22;5938;47.098;15.474;2023-12-07T20:06:12;-3.90;99.90
11762;DHT22;5938;47.098;15.474;2023-12-07T20:10:21;-4.10;99.90
11762;DHT22;5938;47.098;15.474;2023-12-07T20:14:43;-4.30;99.90
11762;DHT22;5938;47.098;15.474;2023-12-07T20:19:43;-4.30;99.90
11762;DHT22;5938;47.098;15.474;2023-12-07T20:29:38;-4.20;99.90
11762;DHT22;5938;47.098;15.474;2023-12-07T20:33:42;-4.40;99.90
11762;DHT22;5938;47.098;15.474;2023-12-07T20:37:47;-4.50;99.90
11762;DHT22;5938;47.098;15.474;2023-12-07T20:41:52;-4.20;99.90
11762;DHT22;5938;47.098;15.474;2023-12-07T20:45:59;-4.40;99.90
11762;DHT22;5938;47.098;15.474;2023-12-07T20:50:23;-4.50;99.90
11762;DHT22;5938;47.098;15.474;2023-12-07T20:54:38;-4.50;99.90
11762;DHT22;5938;47.098;15.474;2023-12-07T20:58:42;-4.60;99.90
11762;DHT22;5938;47.098;15.474;2023-12-07T21:02:51;-4.60;99.90
11762;DHT22;5938;47.098;15.474;2023-12-07T21:06:56;-4.70;99.90
11762;DHT22;5938;47.098;15.474;2023-12-07T21:11:17;-4.70;99.90
11762;DHT22;5938;47.098;15.474;2023-12-07T21:15:24;-4.80;99.90
11762;DHT22;5938;47.098;15.474;2023-12-07T21:19:53;-4.80;99.90
11762;DHT22;5938;47.098;15.474;2023-12-07T21:30:31;-4.70;99.90
11762;DHT22;5938;47.098;15.474;2023-12-07T21:35:44;-4.70;99.90
11762;DHT22;5938;47.098;15.474;2023-12-07T21:56:03;-5.00;99.90
11762;DHT22;5938;47.098;15.474;2023-12-07T22:00:08;-5.00;99.90
11762;DHT22;5938;47.098;15.474;2023-12-07T22:04:13;-4.90;99.90
11762;DHT22;5938;47.098;15.474;2023-12-07T22:08:18;-4.90;99.90
11762;DHT22;5938;47.098;15.474;2023-12-07T22:12:24;-4.80;99.90
11762;DHT22;5938;47.098;15.474;2023-12-07T22:16:28;-4.90;99.90
11762;DHT22;5938;47.098;15.474;2023-12-07T22:20:34;-5.00;99.90
11762;DHT22;5938;47.098;15.474;2023-12-07T22:24:43;-5.00;99.90
11762;DHT22;5938;47.098;15.474;2023-12-07T22:28:50;-5.10;99.90
11762;DHT22;5938;47.098;15.474;2023-12-07T22:32:54;-5.30;99.90
11762;DHT22;5938;47.098;15.474;2023-12-07T22:36:57;-5.30;99.90
11762;DHT22;5938;47.098;15.474;2023-12-07T22:41:01;-5.20;99.90
11762;DHT22;5938;47.098;15.474;2023-12-07T22:45:08;-5.30;99.90
11762;DHT22;5938;47.098;15.474;2023-12-07T22:49:11;-5.40;99.90
11762;DHT22;5938;47.098;15.474;2023-12-07T22:53:16;-5.40;99.90
11762;DHT22;5938;47.098;15.474;2023-12-07T22:57:19;-5.50;99.90
11762;DHT22;5938;47.098;15.474;2023-12-07T23:01:24;-5.30;99.90
11762;DHT22;5938;47.098;15.474;2023-12-07T23:05:28;-5.30;99.90
11762;DHT22;5938;47.098;15.474;2023-12-07T23:09:31;-5.30;99.90
11762;DHT22;5938;47.098;15.474;2023-12-07T23:13:34;-5.50;99.90
11762;DHT22;5938;47.098;15.474;2023-12-07T23:17:42;-5.90;99.90
11762;DHT22;5938;47.098;15.474;2023-12-07T23:21:45;-5.30;99.90
11762;DHT22;5938;47.098;15.474;2023-12-07T23:25:49;-5.40;99.90
11762;DHT22;5938;47.098;15.474;2023-12-07T23:29:52;-5.70;99.90
11762;DHT22;5938;47.098;15.474;2023-12-07T23:33:57;-5.60;99.90
11762;DHT22;5938;47.098;15.474;2023-12-07T23:38:01;-5.80;99.90
11762;DHT22;5938;47.098;15.474;2023-12-07T23:42:05;-5.60;99.90
11762;DHT22;5938;47.098;15.474;2023-12-07T23:46:09;-5.80;99.90
11762;DHT22;5938;47.098;15.474;2023-12-07T23:50:13;-5.60;99.90
11762;DHT22;5938;47.098;15.474;2023-12-07T23:54:17;-5.90;99.90
11762;DHT22;5938;47.098;15.474;2023-12-07T23:58:20;-5.80;99.90
